sensor_id;sensor_type;location;lat;lon;timestamp;P1;durP1;ratioP1;P2;durP2;ratioP2
12024;SDS011;6073;53.230;10.444;2022-12-19T00:02:02;21.30;;;13.13;;
12024;SDS011;6073;53.230;10.444;2022-12-19T00:04:28;27.00;;;13.13;;
12024;SDS011;6073;53.230;10.444;2022-12-19T00:06:55;20.97;;;11.87;;
12024;SDS011;6073;53.230;10.444;2022-12-19T00:09:22;20.20;;;12.97;;
12024;SDS011;6073;53.230;10.444;2022-12-19T00:11:48;20.40;;;11.80;;
12024;SDS011;6073;53.230;10.444;2022-12-19T00:14:13;22.73;;;12.23;;
12024;SDS011;6073;53.230;10.444;2022-12-19T00:16:39;21.17;;;11.83;;
12024;SDS011;6073;53.230;10.444;2022-12-19T00:19:05;23.70;;;12.67;;
12024;SDS011;6073;53.230;10.444;2022-12-19T00:21:31;23.13;;;13.47;;
12024;SDS011;6073;53.230;10.444;2022-12-19T00:23:58;27.57;;;13.17;;
12024;SDS011;6073;53.230;10.444;2022-12-19T00:26:25;19.20;;;11.50;;
12024;SDS011;6073;53.230;10.444;2022-12-19T00:29:04;23.47;;;12.63;;
12024;SDS011;6073;53.230;10.444;2022-12-19T00:31:33;19.20;;;12.50;;
12024;SDS011;6073;53.230;10.444;2022-12-19T00:34:00;21.00;;;11.83;;
12024;SDS011;6073;53.230;10.444;2022-12-19T00:36:27;22.73;;;12.20;;
12024;SDS011;6073;53.230;10.444;2022-12-19T00:38:55;21.20;;;12.53;;
12024;SDS011;6073;53.230;10.444;2022-12-19T00:41:22;23.37;;;12.17;;
12024;SDS011;6073;53.230;10.444;2022-12-19T00:43:53;21.53;;;11.83;;
12024;SDS011;6073;53.230;10.444;2022-12-19T00:46:20;21.90;;;11.60;;
12024;SDS011;6073;53.230;10.444;2022-12-19T00:48:46;18.27;;;11.13;;
12024;SDS011;6073;53.230;10.444;2022-12-19T00:51:13;19.70;;;11.73;;
12024;SDS011;6073;53.230;10.444;2022-12-19T00:53:42;20.67;;;11.80;;
12024;SDS011;6073;53.230;10.444;2022-12-19T00:56:12;24.37;;;12.53;;
12024;SDS011;6073;53.230;10.444;2022-12-19T00:58:40;23.43;;;12.57;;
12024;SDS011;6073;53.230;10.444;2022-12-19T01:01:07;23.37;;;12.50;;
12024;SDS011;6073;53.230;10.444;2022-12-19T01:03:34;22.17;;;11.97;;
12024;SDS011;6073;53.230;10.444;2022-12-19T01:05:59;21.63;;;11.47;;
12024;SDS011;6073;53.230;10.444;2022-12-19T01:08:25;21.23;;;11.97;;
12024;SDS011;6073;53.230;10.444;2022-12-19T01:10:51;20.73;;;11.50;;
12024;SDS011;6073;53.230;10.444;2022-12-19T01:13:18;21.07;;;12.63;;
12024;SDS011;6073;53.230;10.444;2022-12-19T01:15:45;22.27;;;11.80;;
12024;SDS011;6073;53.230;10.444;2022-12-19T01:18:11;21.20;;;11.87;;
12024;SDS011;6073;53.230;10.444;2022-12-19T01:20:40;19.90;;;11.37;;
12024;SDS011;6073;53.230;10.444;2022-12-19T01:23:07;19.63;;;11.27;;
12024;SDS011;6073;53.230;10.444;2022-12-19T01:25:35;21.73;;;12.30;;
12024;SDS011;6073;53.230;10.444;2022-12-19T01:28:02;24.60;;;12.97;;
12024;SDS011;6073;53.230;10.444;2022-12-19T01:30:29;21.07;;;11.87;;
12024;SDS011;6073;53.230;10.444;2022-12-19T01:32:55;20.27;;;11.13;;
12024;SDS011;6073;53.230;10.444;2022-12-19T01:35:21;21.67;;;10.97;;
12024;SDS011;6073;53.230;10.444;2022-12-19T01:37:47;20.43;;;12.43;;
12024;SDS011;6073;53.230;10.444;2022-12-19T01:40:13;20.67;;;11.03;;
12024;SDS011;6073;53.230;10.444;2022-12-19T01:42:38;22.63;;;12.40;;
12024;SDS011;6073;53.230;10.444;2022-12-19T01:47:50;20.67;;;11.07;;
12024;SDS011;6073;53.230;10.444;2022-12-19T01:50:34;18.57;;;12.27;;
12024;SDS011;6073;53.230;10.444;2022-12-19T01:53:08;19.30;;;11.13;;
12024;SDS011;6073;53.230;10.444;2022-12-19T01:55:35;19.30;;;11.87;;
12024;SDS011;6073;53.230;10.444;2022-12-19T01:58:03;21.30;;;11.20;;
12024;SDS011;6073;53.230;10.444;2022-12-19T02:00:29;21.43;;;11.70;;
12024;SDS011;6073;53.230;10.444;2022-12-19T02:02:59;22.30;;;12.03;;
12024;SDS011;6073;53.230;10.444;2022-12-19T02:05:34;21.10;;;11.47;;
12024;SDS011;6073;53.230;10.444;2022-12-19T02:08:00;21.13;;;11.77;;
12024;SDS011;6073;53.230;10.444;2022-12-19T02:10:25;21.03;;;11.63;;
12024;SDS011;6073;53.230;10.444;2022-12-19T02:12:51;17.63;;;10.77;;
12024;SDS011;6073;53.230;10.444;2022-12-19T02:15:17;22.13;;;12.47;;
12024;SDS011;6073;53.230;10.444;2022-12-19T02:17:48;20.00;;;11.77;;
12024;SDS011;6073;53.230;10.444;2022-12-19T02:26:24;18.87;;;11.93;;
12024;SDS011;6073;53.230;10.444;2022-12-19T02:32:06;20.20;;;12.53;;
12024;SDS011;6073;53.230;10.444;2022-12-19T02:34:43;23.17;;;11.90;;
12024;SDS011;6073;53.230;10.444;2022-12-19T02:40:34;19.63;;;11.40;;
12024;SDS011;6073;53.230;10.444;2022-12-19T02:43:06;19.67;;;11.70;;
12024;SDS011;6073;53.230;10.444;2022-12-19T02:45:34;19.70;;;12.00;;
12024;SDS011;6073;53.230;10.444;2022-12-19T02:48:02;20.20;;;11.43;;
12024;SDS011;6073;53.230;10.444;2022-12-19T02:50:36;21.53;;;12.77;;
12024;SDS011;6073;53.230;10.444;2022-12-19T02:53:07;18.83;;;11.37;;
12024;SDS011;6073;53.230;10.444;2022-12-19T02:55:37;19.20;;;11.60;;
12024;SDS011;6073;53.230;10.444;2022-12-19T03:01:32;19.87;;;10.73;;
12024;SDS011;6073;53.230;10.444;2022-12-19T03:06:41;18.93;;;11.27;;
12024;SDS011;6073;53.230;10.444;2022-12-19T03:09:21;18.17;;;11.50;;
12024;SDS011;6073;53.230;10.444;2022-12-19T03:11:51;15.90;;;10.10;;
12024;SDS011;6073;53.230;10.444;2022-12-19T03:14:23;21.77;;;12.03;;
12024;SDS011;6073;53.230;10.444;2022-12-19T03:16:50;18.10;;;11.20;;
12024;SDS011;6073;53.230;10.444;2022-12-19T03:19:16;19.23;;;11.07;;
12024;SDS011;6073;53.230;10.444;2022-12-19T03:21:43;20.03;;;12.30;;
12024;SDS011;6073;53.230;10.444;2022-12-19T03:24:13;15.77;;;10.87;;
12024;SDS011;6073;53.230;10.444;2022-12-19T03:26:53;20.50;;;11.73;;
12024;SDS011;6073;53.230;10.444;2022-12-19T03:29:33;19.13;;;12.20;;
12024;SDS011;6073;53.230;10.444;2022-12-19T03:32:20;17.80;;;11.10;;
12024;SDS011;6073;53.230;10.444;2022-12-19T03:37:26;17.80;;;10.93;;
12024;SDS011;6073;53.230;10.444;2022-12-19T03:39:59;19.67;;;11.37;;
12024;SDS011;6073;53.230;10.444;2022-12-19T03:42:28;19.53;;;11.97;;
12024;SDS011;6073;53.230;10.444;2022-12-19T03:45:16;17.40;;;10.93;;
12024;SDS011;6073;53.230;10.444;2022-12-19T03:47:50;15.17;;;10.77;;
12024;SDS011;6073;53.230;10.444;2022-12-19T03:50:22;17.50;;;10.40;;
12024;SDS011;6073;53.230;10.444;2022-12-19T03:52:52;22.00;;;12.13;;
12024;SDS011;6073;53.230;10.444;2022-12-19T03:58:06;18.80;;;11.53;;
12024;SDS011;6073;53.230;10.444;2022-12-19T04:00:36;19.30;;;11.27;;
12024;SDS011;6073;53.230;10.444;2022-12-19T04:03:04;18.40;;;10.47;;
12024;SDS011;6073;53.230;10.444;2022-12-19T04:05:30;16.57;;;10.90;;
12024;SDS011;6073;53.230;10.444;2022-12-19T04:07:58;17.87;;;11.63;;
12024;SDS011;6073;53.230;10.444;2022-12-19T04:10:28;16.87;;;9.63;;
12024;SDS011;6073;53.230;10.444;2022-12-19T04:12:58;18.23;;;11.03;;
12024;SDS011;6073;53.230;10.444;2022-12-19T04:18:26;16.53;;;10.93;;
12024;SDS011;6073;53.230;10.444;2022-12-19T04:21:00;19.50;;;11.67;;
12024;SDS011;6073;53.230;10.444;2022-12-19T04:23:39;18.67;;;11.07;;
12024;SDS011;6073;53.230;10.444;2022-12-19T04:26:17;18.57;;;10.40;;
12024;SDS011;6073;53.230;10.444;2022-12-19T04:28:49;14.90;;;9.70;;
12024;SDS011;6073;53.230;10.444;2022-12-19T04:31:22;18.10;;;10.40;;
12024;SDS011;6073;53.230;10.444;2022-12-19T04:33:48;17.77;;;10.93;;
12024;SDS011;6073;53.230;10.444;2022-12-19T04:36:14;16.13;;;10.27;;
12024;SDS011;6073;53.230;10.444;2022-12-19T04:38:39;17.30;;;10.73;;
12024;SDS011;6073;53.230;10.444;2022-12-19T04:41:05;17.17;;;10.50;;
12024;SDS011;6073;53.230;10.444;2022-12-19T04:43:31;17.33;;;10.80;;
12024;SDS011;6073;53.230;10.444;2022-12-19T04:45:56;19.07;;;11.20;;
12024;SDS011;6073;53.230;10.444;2022-12-19T04:48:22;17.83;;;10.20;;
12024;SDS011;6073;53.230;10.444;2022-12-19T04:50:47;19.00;;;11.20;;
12024;SDS011;6073;53.230;10.444;2022-12-19T04:53:13;19.33;;;12.35;;
12024;SDS011;6073;53.230;10.444;2022-12-19T04:55:38;18.43;;;10.87;;
12024;SDS011;6073;53.230;10.444;2022-12-19T04:58:05;18.08;;;11.60;;
12024;SDS011;6073;53.230;10.444;2022-12-19T05:00:32;21.00;;;11.10;;
12024;SDS011;6073;53.230;10.444;2022-12-19T05:02:57;17.30;;;10.55;;
12024;SDS011;6073;53.230;10.444;2022-12-19T05:05:23;16.93;;;10.33;;
12024;SDS011;6073;53.230;10.444;2022-12-19T05:07:49;17.57;;;10.27;;
12024;SDS011;6073;53.230;10.444;2022-12-19T05:10:15;15.93;;;10.33;;
12024;SDS011;6073;53.230;10.444;2022-12-19T05:12:41;16.73;;;10.10;;
12024;SDS011;6073;53.230;10.444;2022-12-19T05:15:06;14.97;;;9.30;;
12024;SDS011;6073;53.230;10.444;2022-12-19T05:17:32;16.03;;;10.13;;
12024;SDS011;6073;53.230;10.444;2022-12-19T05:19:58;17.38;;;9.95;;
12024;SDS011;6073;53.230;10.444;2022-12-19T05:22:23;17.77;;;10.90;;
12024;SDS011;6073;53.230;10.444;2022-12-19T05:24:52;16.35;;;9.95;;
12024;SDS011;6073;53.230;10.444;2022-12-19T05:27:17;20.03;;;12.10;;
12024;SDS011;6073;53.230;10.444;2022-12-19T05:29:43;16.00;;;10.17;;
12024;SDS011;6073;53.230;10.444;2022-12-19T05:32:08;15.70;;;10.20;;
12024;SDS011;6073;53.230;10.444;2022-12-19T05:34:34;19.40;;;9.50;;
12024;SDS011;6073;53.230;10.444;2022-12-19T05:36:59;16.58;;;9.55;;
12024;SDS011;6073;53.230;10.444;2022-12-19T05:39:27;15.07;;;9.90;;
12024;SDS011;6073;53.230;10.444;2022-12-19T05:41:53;16.05;;;10.30;;
12024;SDS011;6073;53.230;10.444;2022-12-19T05:44:18;15.93;;;9.93;;
12024;SDS011;6073;53.230;10.444;2022-12-19T05:46:44;12.75;;;9.10;;
12024;SDS011;6073;53.230;10.444;2022-12-19T05:49:10;16.38;;;9.55;;
12024;SDS011;6073;53.230;10.444;2022-12-19T05:51:35;15.80;;;10.13;;
12024;SDS011;6073;53.230;10.444;2022-12-19T05:54:01;13.70;;;9.85;;
12024;SDS011;6073;53.230;10.444;2022-12-19T05:56:26;13.45;;;9.20;;
12024;SDS011;6073;53.230;10.444;2022-12-19T05:58:52;14.07;;;9.23;;
12024;SDS011;6073;53.230;10.444;2022-12-19T06:01:19;15.23;;;9.52;;
12024;SDS011;6073;53.230;10.444;2022-12-19T06:03:46;15.32;;;9.55;;
12024;SDS011;6073;53.230;10.444;2022-12-19T06:06:14;15.93;;;9.35;;
12024;SDS011;6073;53.230;10.444;2022-12-19T06:08:42;15.55;;;9.07;;
12024;SDS011;6073;53.230;10.444;2022-12-19T06:11:08;14.43;;;9.43;;
12024;SDS011;6073;53.230;10.444;2022-12-19T06:13:35;15.18;;;9.50;;
12024;SDS011;6073;53.230;10.444;2022-12-19T06:16:02;13.95;;;8.98;;
12024;SDS011;6073;53.230;10.444;2022-12-19T06:18:30;14.07;;;8.98;;
12024;SDS011;6073;53.230;10.444;2022-12-19T06:21:00;13.02;;;9.15;;
12024;SDS011;6073;53.230;10.444;2022-12-19T06:23:28;15.63;;;9.55;;
12024;SDS011;6073;53.230;10.444;2022-12-19T06:25:55;13.88;;;9.10;;
12024;SDS011;6073;53.230;10.444;2022-12-19T06:28:22;14.80;;;9.07;;
12024;SDS011;6073;53.230;10.444;2022-12-19T06:30:48;14.20;;;9.77;;
12024;SDS011;6073;53.230;10.444;2022-12-19T06:33:13;16.60;;;9.88;;
12024;SDS011;6073;53.230;10.444;2022-12-19T06:35:39;15.38;;;9.23;;
12024;SDS011;6073;53.230;10.444;2022-12-19T06:38:04;14.20;;;9.48;;
12024;SDS011;6073;53.230;10.444;2022-12-19T06:40:30;12.60;;;9.07;;
12024;SDS011;6073;53.230;10.444;2022-12-19T06:43:14;14.77;;;9.18;;
12024;SDS011;6073;53.230;10.444;2022-12-19T06:45:39;13.70;;;8.90;;
12024;SDS011;6073;53.230;10.444;2022-12-19T06:48:05;15.75;;;10.00;;
12024;SDS011;6073;53.230;10.444;2022-12-19T06:50:30;13.63;;;8.93;;
12024;SDS011;6073;53.230;10.444;2022-12-19T06:52:56;13.65;;;9.10;;
12024;SDS011;6073;53.230;10.444;2022-12-19T06:55:21;17.27;;;10.00;;
12024;SDS011;6073;53.230;10.444;2022-12-19T06:57:47;15.57;;;9.90;;
12024;SDS011;6073;53.230;10.444;2022-12-19T07:00:13;12.75;;;8.65;;
12024;SDS011;6073;53.230;10.444;2022-12-19T07:02:39;13.60;;;9.07;;
12024;SDS011;6073;53.230;10.444;2022-12-19T07:05:08;13.85;;;8.88;;
12024;SDS011;6073;53.230;10.444;2022-12-19T07:07:35;13.40;;;9.00;;
12024;SDS011;6073;53.230;10.444;2022-12-19T07:10:01;17.73;;;10.55;;
12024;SDS011;6073;53.230;10.444;2022-12-19T07:12:29;13.07;;;9.05;;
12024;SDS011;6073;53.230;10.444;2022-12-19T07:14:55;15.10;;;10.15;;
12024;SDS011;6073;53.230;10.444;2022-12-19T07:17:21;16.60;;;10.27;;
12024;SDS011;6073;53.230;10.444;2022-12-19T07:19:49;15.30;;;9.93;;
12024;SDS011;6073;53.230;10.444;2022-12-19T07:22:15;15.10;;;9.45;;
12024;SDS011;6073;53.230;10.444;2022-12-19T07:24:41;14.27;;;10.18;;
12024;SDS011;6073;53.230;10.444;2022-12-19T07:27:06;15.85;;;9.73;;
12024;SDS011;6073;53.230;10.444;2022-12-19T07:29:32;12.10;;;9.07;;
12024;SDS011;6073;53.230;10.444;2022-12-19T07:31:57;16.73;;;9.45;;
12024;SDS011;6073;53.230;10.444;2022-12-19T07:34:23;18.52;;;9.85;;
12024;SDS011;6073;53.230;10.444;2022-12-19T07:36:48;13.60;;;9.40;;
12024;SDS011;6073;53.230;10.444;2022-12-19T07:39:17;14.25;;;9.30;;
12024;SDS011;6073;53.230;10.444;2022-12-19T07:41:42;17.70;;;10.20;;
12024;SDS011;6073;53.230;10.444;2022-12-19T07:44:08;16.33;;;9.70;;
12024;SDS011;6073;53.230;10.444;2022-12-19T07:46:37;12.80;;;8.80;;
12024;SDS011;6073;53.230;10.444;2022-12-19T07:49:02;14.90;;;9.95;;
12024;SDS011;6073;53.230;10.444;2022-12-19T07:51:28;17.77;;;9.45;;
12024;SDS011;6073;53.230;10.444;2022-12-19T07:53:53;17.70;;;10.30;;
12024;SDS011;6073;53.230;10.444;2022-12-19T07:56:19;13.77;;;9.80;;
12024;SDS011;6073;53.230;10.444;2022-12-19T07:58:44;17.67;;;10.45;;
12024;SDS011;6073;53.230;10.444;2022-12-19T08:01:10;16.85;;;10.43;;
12024;SDS011;6073;53.230;10.444;2022-12-19T08:03:38;16.88;;;10.77;;
12024;SDS011;6073;53.230;10.444;2022-12-19T08:06:05;17.50;;;10.68;;
12024;SDS011;6073;53.230;10.444;2022-12-19T08:08:31;19.67;;;11.55;;
12024;SDS011;6073;53.230;10.444;2022-12-19T08:11:10;18.70;;;10.35;;
12024;SDS011;6073;53.230;10.444;2022-12-19T08:13:38;16.80;;;10.27;;
12024;SDS011;6073;53.230;10.444;2022-12-19T08:16:03;17.55;;;10.88;;
12024;SDS011;6073;53.230;10.444;2022-12-19T08:18:29;16.27;;;10.75;;
12024;SDS011;6073;53.230;10.444;2022-12-19T08:20:55;17.98;;;10.82;;
12024;SDS011;6073;53.230;10.444;2022-12-19T08:23:20;16.65;;;10.88;;
12024;SDS011;6073;53.230;10.444;2022-12-19T08:25:46;16.20;;;10.13;;
12024;SDS011;6073;53.230;10.444;2022-12-19T08:28:12;18.65;;;11.02;;
12024;SDS011;6073;53.230;10.444;2022-12-19T08:30:38;16.30;;;10.23;;
12024;SDS011;6073;53.230;10.444;2022-12-19T08:33:04;16.80;;;10.70;;
12024;SDS011;6073;53.230;10.444;2022-12-19T08:35:30;17.92;;;12.18;;
12024;SDS011;6073;53.230;10.444;2022-12-19T08:37:56;17.92;;;10.45;;
12024;SDS011;6073;53.230;10.444;2022-12-19T08:40:23;20.30;;;11.00;;
12024;SDS011;6073;53.230;10.444;2022-12-19T08:42:49;15.75;;;10.35;;
12024;SDS011;6073;53.230;10.444;2022-12-19T08:45:15;19.63;;;11.95;;
12024;SDS011;6073;53.230;10.444;2022-12-19T08:47:42;18.10;;;11.40;;
12024;SDS011;6073;53.230;10.444;2022-12-19T08:50:08;19.63;;;11.15;;
12024;SDS011;6073;53.230;10.444;2022-12-19T08:52:34;20.45;;;11.52;;
12024;SDS011;6073;53.230;10.444;2022-12-19T08:55:00;18.23;;;11.52;;
12024;SDS011;6073;53.230;10.444;2022-12-19T08:57:26;15.77;;;10.55;;
12024;SDS011;6073;53.230;10.444;2022-12-19T08:59:51;20.95;;;11.75;;
12024;SDS011;6073;53.230;10.444;2022-12-19T09:02:17;19.55;;;12.13;;
12024;SDS011;6073;53.230;10.444;2022-12-19T09:04:43;17.70;;;10.98;;
12024;SDS011;6073;53.230;10.444;2022-12-19T09:07:08;18.88;;;12.43;;
12024;SDS011;6073;53.230;10.444;2022-12-19T09:09:34;21.52;;;12.07;;
12024;SDS011;6073;53.230;10.444;2022-12-19T09:11:59;18.00;;;11.60;;
12024;SDS011;6073;53.230;10.444;2022-12-19T09:14:25;18.05;;;11.85;;
12024;SDS011;6073;53.230;10.444;2022-12-19T09:16:50;17.90;;;11.98;;
12024;SDS011;6073;53.230;10.444;2022-12-19T09:19:16;21.50;;;12.15;;
12024;SDS011;6073;53.230;10.444;2022-12-19T09:21:42;19.27;;;12.35;;
12024;SDS011;6073;53.230;10.444;2022-12-19T09:24:08;25.52;;;13.05;;
12024;SDS011;6073;53.230;10.444;2022-12-19T09:26:35;19.48;;;12.07;;
12024;SDS011;6073;53.230;10.444;2022-12-19T09:29:05;20.75;;;12.68;;
12024;SDS011;6073;53.230;10.444;2022-12-19T09:31:32;20.20;;;11.90;;
12024;SDS011;6073;53.230;10.444;2022-12-19T09:33:58;19.55;;;12.77;;
12024;SDS011;6073;53.230;10.444;2022-12-19T09:36:23;21.65;;;13.02;;
12024;SDS011;6073;53.230;10.444;2022-12-19T09:38:51;21.83;;;12.43;;
12024;SDS011;6073;53.230;10.444;2022-12-19T09:44:19;19.45;;;12.65;;
12024;SDS011;6073;53.230;10.444;2022-12-19T09:47:11;22.48;;;12.77;;
12024;SDS011;6073;53.230;10.444;2022-12-19T09:49:41;21.73;;;12.77;;
12024;SDS011;6073;53.230;10.444;2022-12-19T09:52:20;23.23;;;13.48;;
12024;SDS011;6073;53.230;10.444;2022-12-19T09:55:02;21.90;;;12.80;;
12024;SDS011;6073;53.230;10.444;2022-12-19T10:00:14;22.77;;;13.98;;
12024;SDS011;6073;53.230;10.444;2022-12-19T10:08:17;21.98;;;13.60;;
12024;SDS011;6073;53.230;10.444;2022-12-19T10:16:00;24.70;;;13.27;;
12024;SDS011;6073;53.230;10.444;2022-12-19T10:18:43;22.70;;;13.90;;
12024;SDS011;6073;53.230;10.444;2022-12-19T10:21:23;21.38;;;13.13;;
12024;SDS011;6073;53.230;10.444;2022-12-19T10:23:58;22.00;;;13.32;;
12024;SDS011;6073;53.230;10.444;2022-12-19T10:26:51;27.48;;;15.38;;
12024;SDS011;6073;53.230;10.444;2022-12-19T10:35:15;25.35;;;14.30;;
12024;SDS011;6073;53.230;10.444;2022-12-19T10:37:44;23.42;;;14.38;;
12024;SDS011;6073;53.230;10.444;2022-12-19T10:45:13;22.75;;;14.88;;
12024;SDS011;6073;53.230;10.444;2022-12-19T10:47:43;23.63;;;14.77;;
12024;SDS011;6073;53.230;10.444;2022-12-19T10:50:12;23.30;;;14.30;;
12024;SDS011;6073;53.230;10.444;2022-12-19T10:52:45;24.38;;;13.82;;
12024;SDS011;6073;53.230;10.444;2022-12-19T10:55:25;23.90;;;14.75;;
12024;SDS011;6073;53.230;10.444;2022-12-19T10:57:58;25.90;;;14.15;;
12024;SDS011;6073;53.230;10.444;2022-12-19T11:00:34;23.13;;;14.48;;
12024;SDS011;6073;53.230;10.444;2022-12-19T11:03:04;25.33;;;14.45;;
12024;SDS011;6073;53.230;10.444;2022-12-19T11:05:45;23.27;;;12.75;;
12024;SDS011;6073;53.230;10.444;2022-12-19T11:08:15;25.67;;;14.38;;
12024;SDS011;6073;53.230;10.444;2022-12-19T11:16:07;23.48;;;14.02;;
12024;SDS011;6073;53.230;10.444;2022-12-19T11:21:00;25.55;;;14.93;;
12024;SDS011;6073;53.230;10.444;2022-12-19T11:23:51;22.83;;;14.35;;
12024;SDS011;6073;53.230;10.444;2022-12-19T11:29:18;22.92;;;13.50;;
12024;SDS011;6073;53.230;10.444;2022-12-19T11:32:00;25.45;;;13.98;;
12024;SDS011;6073;53.230;10.444;2022-12-19T11:34:27;25.45;;;15.07;;
12024;SDS011;6073;53.230;10.444;2022-12-19T11:42:22;22.55;;;14.02;;
12024;SDS011;6073;53.230;10.444;2022-12-19T11:45:02;25.67;;;14.98;;
12024;SDS011;6073;53.230;10.444;2022-12-19T11:47:54;22.50;;;14.45;;
12024;SDS011;6073;53.230;10.444;2022-12-19T11:50:55;20.85;;;14.13;;
12024;SDS011;6073;53.230;10.444;2022-12-19T11:56:20;23.98;;;14.60;;
12024;SDS011;6073;53.230;10.444;2022-12-19T11:58:52;18.45;;;12.65;;
12024;SDS011;6073;53.230;10.444;2022-12-19T12:04:14;22.70;;;13.18;;
12024;SDS011;6073;53.230;10.444;2022-12-19T12:07:03;23.80;;;13.90;;
12024;SDS011;6073;53.230;10.444;2022-12-19T12:12:24;21.77;;;12.88;;
12024;SDS011;6073;53.230;10.444;2022-12-19T12:26:25;19.67;;;12.23;;
12024;SDS011;6073;53.230;10.444;2022-12-19T12:34:53;18.40;;;11.32;;
12024;SDS011;6073;53.230;10.444;2022-12-19T12:45:48;17.50;;;11.20;;
12024;SDS011;6073;53.230;10.444;2022-12-19T12:48:25;15.38;;;10.30;;
12024;SDS011;6073;53.230;10.444;2022-12-19T12:50:55;18.58;;;11.88;;
12024;SDS011;6073;53.230;10.444;2022-12-19T12:53:24;17.60;;;11.05;;
12024;SDS011;6073;53.230;10.444;2022-12-19T12:55:56;16.50;;;11.20;;
12024;SDS011;6073;53.230;10.444;2022-12-19T13:01:09;17.45;;;11.32;;
12024;SDS011;6073;53.230;10.444;2022-12-19T13:03:50;17.33;;;10.48;;
12024;SDS011;6073;53.230;10.444;2022-12-19T13:06:32;17.25;;;11.30;;
12024;SDS011;6073;53.230;10.444;2022-12-19T13:11:44;19.83;;;11.57;;
12024;SDS011;6073;53.230;10.444;2022-12-19T13:17:08;17.80;;;11.95;;
12024;SDS011;6073;53.230;10.444;2022-12-19T13:19:36;18.48;;;11.90;;
12024;SDS011;6073;53.230;10.444;2022-12-19T13:22:41;19.85;;;12.18;;
12024;SDS011;6073;53.230;10.444;2022-12-19T13:30:27;18.02;;;11.43;;
12024;SDS011;6073;53.230;10.444;2022-12-19T13:37:47;19.40;;;13.13;;
12024;SDS011;6073;53.230;10.444;2022-12-19T13:45:56;18.20;;;11.80;;
12024;SDS011;6073;53.230;10.444;2022-12-19T13:48:38;24.73;;;12.77;;
12024;SDS011;6073;53.230;10.444;2022-12-19T13:51:08;24.40;;;13.27;;
12024;SDS011;6073;53.230;10.444;2022-12-19T13:53:34;22.85;;;14.57;;
12024;SDS011;6073;53.230;10.444;2022-12-19T13:56:02;19.67;;;13.35;;
12024;SDS011;6073;53.230;10.444;2022-12-19T13:58:30;19.13;;;12.77;;
12024;SDS011;6073;53.230;10.444;2022-12-19T14:01:03;23.63;;;13.63;;
12024;SDS011;6073;53.230;10.444;2022-12-19T14:03:35;20.02;;;13.27;;
12024;SDS011;6073;53.230;10.444;2022-12-19T14:06:05;20.23;;;13.80;;
12024;SDS011;6073;53.230;10.444;2022-12-19T14:08:39;21.13;;;14.02;;
12024;SDS011;6073;53.230;10.444;2022-12-19T14:11:08;22.13;;;13.35;;
12024;SDS011;6073;53.230;10.444;2022-12-19T14:13:34;24.23;;;14.07;;
12024;SDS011;6073;53.230;10.444;2022-12-19T14:16:26;21.05;;;14.52;;
12024;SDS011;6073;53.230;10.444;2022-12-19T14:18:52;22.65;;;14.73;;
12024;SDS011;6073;53.230;10.444;2022-12-19T14:21:21;21.35;;;13.63;;
12024;SDS011;6073;53.230;10.444;2022-12-19T14:23:48;24.80;;;14.70;;
12024;SDS011;6073;53.230;10.444;2022-12-19T14:29:02;25.40;;;14.77;;
12024;SDS011;6073;53.230;10.444;2022-12-19T14:31:31;25.00;;;15.38;;
12024;SDS011;6073;53.230;10.444;2022-12-19T14:34:00;24.83;;;15.20;;
12024;SDS011;6073;53.230;10.444;2022-12-19T14:36:26;27.77;;;16.25;;
12024;SDS011;6073;53.230;10.444;2022-12-19T14:38:53;26.80;;;16.15;;
12024;SDS011;6073;53.230;10.444;2022-12-19T14:44:10;26.33;;;15.55;;
12024;SDS011;6073;53.230;10.444;2022-12-19T14:46:36;28.13;;;16.50;;
12024;SDS011;6073;53.230;10.444;2022-12-19T14:49:02;28.15;;;17.88;;
12024;SDS011;6073;53.230;10.444;2022-12-19T14:51:46;28.30;;;16.30;;
12024;SDS011;6073;53.230;10.444;2022-12-19T14:56:43;29.73;;;16.50;;
12024;SDS011;6073;53.230;10.444;2022-12-19T15:04:35;29.70;;;17.02;;
12024;SDS011;6073;53.230;10.444;2022-12-19T15:07:08;32.20;;;17.42;;
12024;SDS011;6073;53.230;10.444;2022-12-19T15:09:51;31.05;;;18.30;;
12024;SDS011;6073;53.230;10.444;2022-12-19T15:12:32;34.47;;;18.90;;
12024;SDS011;6073;53.230;10.444;2022-12-19T15:18:22;30.35;;;17.95;;
12024;SDS011;6073;53.230;10.444;2022-12-19T15:20:52;35.30;;;19.42;;
12024;SDS011;6073;53.230;10.444;2022-12-19T15:23:20;32.33;;;18.98;;
12024;SDS011;6073;53.230;10.444;2022-12-19T15:25:46;37.33;;;20.23;;
12024;SDS011;6073;53.230;10.444;2022-12-19T15:28:15;36.20;;;19.58;;
12024;SDS011;6073;53.230;10.444;2022-12-19T15:30:45;34.53;;;19.58;;
12024;SDS011;6073;53.230;10.444;2022-12-19T15:33:16;33.25;;;19.80;;
12024;SDS011;6073;53.230;10.444;2022-12-19T15:35:42;32.92;;;19.63;;
12024;SDS011;6073;53.230;10.444;2022-12-19T15:38:08;41.95;;;20.83;;
12024;SDS011;6073;53.230;10.444;2022-12-19T15:40:34;31.25;;;18.55;;
12024;SDS011;6073;53.230;10.444;2022-12-19T15:43:00;37.63;;;20.02;;
12024;SDS011;6073;53.230;10.444;2022-12-19T15:45:28;37.60;;;21.52;;
12024;SDS011;6073;53.230;10.444;2022-12-19T15:47:54;34.80;;;20.38;;
12024;SDS011;6073;53.230;10.444;2022-12-19T15:50:29;32.67;;;19.83;;
12024;SDS011;6073;53.230;10.444;2022-12-19T15:52:56;30.08;;;19.10;;
12024;SDS011;6073;53.230;10.444;2022-12-19T15:55:24;38.38;;;19.92;;
12024;SDS011;6073;53.230;10.444;2022-12-19T15:57:59;33.80;;;18.50;;
12024;SDS011;6073;53.230;10.444;2022-12-19T16:00:28;35.83;;;19.88;;
12024;SDS011;6073;53.230;10.444;2022-12-19T16:02:58;33.53;;;18.70;;
12024;SDS011;6073;53.230;10.444;2022-12-19T16:05:24;32.25;;;19.02;;
12024;SDS011;6073;53.230;10.444;2022-12-19T16:07:50;33.03;;;18.80;;
12024;SDS011;6073;53.230;10.444;2022-12-19T16:10:15;36.50;;;19.75;;
12024;SDS011;6073;53.230;10.444;2022-12-19T16:12:43;31.80;;;18.42;;
12024;SDS011;6073;53.230;10.444;2022-12-19T16:15:13;35.45;;;20.60;;
12024;SDS011;6073;53.230;10.444;2022-12-19T16:17:47;36.05;;;19.83;;
12024;SDS011;6073;53.230;10.444;2022-12-19T16:20:14;38.20;;;19.63;;
12024;SDS011;6073;53.230;10.444;2022-12-19T16:22:41;33.83;;;19.55;;
12024;SDS011;6073;53.230;10.444;2022-12-19T16:25:08;34.47;;;20.40;;
12024;SDS011;6073;53.230;10.444;2022-12-19T16:27:35;30.45;;;19.65;;
12024;SDS011;6073;53.230;10.444;2022-12-19T16:30:20;37.25;;;19.70;;
12024;SDS011;6073;53.230;10.444;2022-12-19T16:32:51;34.17;;;18.88;;
12024;SDS011;6073;53.230;10.444;2022-12-19T16:35:18;32.42;;;18.38;;
12024;SDS011;6073;53.230;10.444;2022-12-19T16:37:45;30.55;;;18.13;;
12024;SDS011;6073;53.230;10.444;2022-12-19T16:40:21;33.25;;;20.13;;
12024;SDS011;6073;53.230;10.444;2022-12-19T16:42:49;30.35;;;19.30;;
12024;SDS011;6073;53.230;10.444;2022-12-19T16:45:26;28.38;;;17.00;;
12024;SDS011;6073;53.230;10.444;2022-12-19T16:47:52;33.72;;;19.38;;
12024;SDS011;6073;53.230;10.444;2022-12-19T16:50:19;28.50;;;18.00;;
12024;SDS011;6073;53.230;10.444;2022-12-19T16:52:53;29.95;;;19.33;;
12024;SDS011;6073;53.230;10.444;2022-12-19T16:55:20;32.58;;;18.75;;
12024;SDS011;6073;53.230;10.444;2022-12-19T16:57:47;28.77;;;16.65;;
12024;SDS011;6073;53.230;10.444;2022-12-19T17:00:18;31.20;;;18.58;;
12024;SDS011;6073;53.230;10.444;2022-12-19T17:02:46;32.10;;;18.58;;
12024;SDS011;6073;53.230;10.444;2022-12-19T17:05:24;35.00;;;19.73;;